Time;durP1;ratioP1;P1;durP2;ratioP2;P2;SDS_P1;SDS_P2;PMS_P1;PMS_P2;Temp;Humidity;BMP_temperature;BMP_pressure;BME280_temperature;BME280_humidity;BME280_pressure;Samples;Min_cycle;Max_cycle;Signal;HPM_P1;HPM_P2
2023/01/29 00:01:06;;;;;;;12.77;12.07;;;5.60;22.70;;;;;;4950086;28;20415;-54
2023/01/29 00:03:32;;;;;;;13.50;12.57;;;5.60;23.70;;;;;;4950876;28;20517;-54
2023/01/29 00:05:58;;;;;;;11.90;11.30;;;5.60;22.90;;;;;;4949741;28;20470;-52
2023/01/29 00:08:25;;;;;;;14.23;13.23;;;5.60;22.60;;;;;;4949439;28;20423;-53
2023/01/29 00:10:50;;;;;;;14.33;13.33;;;5.20;23.60;;;;;;4950281;28;20546;-51
2023/01/29 00:13:16;;;;;;;13.97;13.17;;;4.80;24.80;;;;;;4949556;28;20423;-52
2023/01/29 00:15:42;;;;;;;12.60;11.90;;;4.30;25.60;;;;;;4950663;28;20261;-54
2023/01/29 00:18:07;;;;;;;13.23;12.43;;;4.40;26.40;;;;;;4950121;28;20198;-53
2023/01/29 00:20:33;;;;;;;12.70;12.00;;;4.60;25.80;;;;;;4949590;28;20179;-53
2023/01/29 00:22:59;;;;;;;13.40;12.57;;;4.80;25.30;;;;;;4949727;28;20175;-53
2023/01/29 00:25:25;;;;;;;13.00;12.10;;;5.10;24.70;;;;;;4950050;28;20187;-54
2023/01/29 00:27:51;;;;;;;12.37;11.57;;;5.20;24.30;;;;;;4950090;28;20427;-52
2023/01/29 00:30:18;;;;;;;12.40;11.50;;;5.30;24.00;;;;;;4949484;28;20233;-63
2023/01/29 00:32:44;;;;;;;13.23;12.40;;;5.30;23.60;;;;;;4965799;28;20497;-63
2023/01/29 00:35:10;;;;;;;13.93;12.93;;;5.30;23.70;;;;;;4950388;28;20423;-64
2023/01/29 00:37:36;;;;;;;13.23;12.33;;;5.40;23.70;;;;;;4950703;28;20907;-66
2023/01/29 00:40:03;;;;;;;13.13;12.33;;;5.40;23.40;;;;;;4949262;28;20419;-63
2023/01/29 00:45:13;;;;;;;12.50;11.80;;;5.50;23.30;;;;;;4950963;29;20790;-63
2023/01/29 00:47:38;;;;;;;14.10;13.03;;;5.50;23.10;;;;;;4949391;28;20423;-62
2023/01/29 00:50:07;;;;;;;11.73;11.13;;;5.50;23.20;;;;;;4949694;28;20179;-62
2023/01/29 00:52:35;;;;;;;13.50;12.70;;;5.50;23.10;;;;;;4949675;28;20186;-63
2023/01/29 00:55:01;;;;;;;12.83;11.83;;;5.50;23.00;;;;;;4949287;28;20915;-64
2023/01/29 00:57:30;;;;;;;12.53;11.87;;;5.60;23.00;;;;;;4948642;28;20415;-63
2023/01/29 00:59:56;;;;;;;13.90;12.80;;;5.50;23.10;;;;;;4950332;28;20506;-63
2023/01/29 01:05:16;;;;;;;12.53;11.90;;;5.30;23.20;;;;;;4950847;29;20435;-62
2023/01/29 01:07:50;;;;;;;12.10;11.37;;;5.20;23.70;;;;;;4949193;28;20417;-63
2023/01/29 01:10:43;;;;;;;12.97;12.23;;;5.30;23.30;;;;;;4948846;28;20415;-63
2023/01/29 01:13:08;;;;;;;12.90;12.00;;;5.40;23.50;;;;;;4960494;28;20415;-62
2023/01/29 01:15:37;;;;;;;16.47;15.37;;;5.30;23.40;;;;;;4948690;28;20469;-62
2023/01/29 01:18:03;;;;;;;17.17;15.97;;;5.30;23.50;;;;;;4948268;28;20175;-63
2023/01/29 01:20:33;;;;;;;16.97;15.97;;;5.30;23.30;;;;;;4949080;28;20426;-62
2023/01/29 01:22:58;;;;;;;15.57;14.67;;;5.40;23.20;;;;;;4948593;28;20779;-62
2023/01/29 01:25:26;;;;;;;14.90;14.00;;;5.40;23.20;;;;;;4948302;28;20423;-63
2023/01/29 01:27:56;;;;;;;12.83;12.03;;;5.30;23.30;;;;;;4948453;28;20242;-63
2023/01/29 01:30:23;;;;;;;12.87;12.13;;;5.20;23.80;;;;;;4947932;28;20418;-63
2023/01/29 01:32:48;;;;;;;12.20;11.50;;;5.20;23.50;;;;;;4948986;28;20415;-62
2023/01/29 01:35:14;;;;;;;12.83;12.10;;;5.20;23.30;;;;;;4948413;28;20422;-63
2023/01/29 01:37:40;;;;;;;11.10;10.60;;;5.10;23.70;;;;;;4948751;28;20529;-63
2023/01/29 01:40:16;;;;;;;12.40;11.70;;;5.10;23.70;;;;;;4949707;28;20175;-63
2023/01/29 01:42:43;;;;;;;12.13;11.47;;;5.20;23.40;;;;;;4948846;28;20415;-63
2023/01/29 01:45:27;;;;;;;12.43;11.73;;;5.30;23.50;;;;;;4948246;28;20419;-63
2023/01/29 01:47:59;;;;;;;13.80;13.10;;;5.40;23.00;;;;;;4964861;28;20411;-63
2023/01/29 01:50:33;;;;;;;13.03;12.23;;;5.30;23.00;;;;;;4949651;28;20469;-63
2023/01/29 01:53:07;;;;;;;12.10;11.50;;;5.30;23.30;;;;;;4948358;28;20421;-63
2023/01/29 01:55:36;;;;;;;12.60;11.90;;;5.30;23.30;;;;;;4948038;28;20467;-63
2023/01/29 01:58:10;;;;;;;11.57;10.87;;;5.40;22.90;;;;;;4948469;28;20418;-63
2023/01/29 02:00:37;;;;;;;12.70;12.00;;;5.40;22.80;;;;;;4947818;28;20922;-54
2023/01/29 02:11:43;;;;;;;12.17;11.43;;;5.20;22.90;;;;;;4950530;29;20417;-63
2023/01/29 02:14:09;;;;;;;12.20;11.50;;;5.10;22.70;;;;;;4947683;28;20415;-63
2023/01/29 02:16:36;;;;;;;12.77;11.97;;;5.10;22.70;;;;;;4947993;28;20523;-63
2023/01/29 02:19:09;;;;;;;14.00;13.20;;;5.10;22.80;;;;;;4948656;28;20502;-63
2023/01/29 02:21:44;;;;;;;12.53;11.83;;;5.00;22.70;;;;;;4948537;28;20411;-62
2023/01/29 02:24:21;;;;;;;13.00;12.27;;;5.00;22.80;;;;;;4966463;28;20819;-63
2023/01/29 02:27:09;;;;;;;13.40;12.60;;;4.90;22.80;;;;;;4971073;28;20453;-63
2023/01/29 02:30:00;;;;;;;12.47;11.77;;;4.80;23.10;;;;;;4970552;28;20476;-62
2023/01/29 02:32:59;;;;;;;13.37;12.67;;;4.70;23.70;;;;;;4971637;28;20425;-62
2023/01/29 02:35:33;;;;;;;12.47;11.77;;;4.70;23.30;;;;;;4971337;28;20485;-62
2023/01/29 02:38:23;;;;;;;13.80;13.00;;;4.70;23.70;;;;;;4971255;28;20424;-63
2023/01/29 02:41:11;;;;;;;12.50;11.80;;;4.80;23.30;;;;;;4970786;28;20414;-62
2023/01/29 02:44:16;;;;;;;13.30;12.60;;;4.80;23.20;;;;;;4971739;28;20783;-62
2023/01/29 02:46:57;;;;;;;13.70;12.80;;;4.80;23.80;;;;;;4954943;28;20772;-62
2023/01/29 02:49:34;;;;;;;12.20;11.50;;;4.80;22.90;;;;;;4970849;28;20568;-63
2023/01/29 02:52:15;;;;;;;14.20;13.20;;;4.90;23.50;;;;;;4970739;28;20918;-63
2023/01/29 02:54:45;;;;;;;11.90;11.33;;;4.80;23.20;;;;;;4971327;28;20914;-62
2023/01/29 02:57:27;;;;;;;13.70;12.77;;;4.70;23.60;;;;;;4971400;28;20818;-62
2023/01/29 03:00:05;;;;;;;12.67;12.00;;;4.50;23.80;;;;;;4970377;28;20418;-53
2023/01/29 03:02:49;;;;;;;12.37;11.63;;;4.40;24.70;;;;;;4970779;28;20436;-63
2023/01/29 03:05:20;;;;;;;13.00;12.30;;;4.50;24.00;;;;;;4970928;28;20421;-64
2023/01/29 03:07:52;;;;;;;12.90;12.20;;;4.60;23.50;;;;;;4972493;28;20550;-62
2023/01/29 03:10:26;;;;;;;13.53;12.70;;;4.60;23.80;;;;;;4970677;28;20414;-62
2023/01/29 03:13:33;;;;;;;12.67;12.07;;;4.70;23.50;;;;;;4971265;28;20465;-63
2023/01/29 03:16:08;;;;;;;12.97;12.10;;;4.70;23.60;;;;;;4971581;28;20469;-62
2023/01/29 03:18:44;;;;;;;12.50;11.90;;;4.80;23.40;;;;;;4971589;28;20467;-63
2023/01/29 03:32:23;;;;;;;12.97;12.27;;;4.90;23.30;;;;;;4971736;28;20460;-63
2023/01/29 03:34:53;;;;;;;13.17;12.47;;;4.90;23.10;;;;;;4969716;28;20433;-52
2023/01/29 03:37:25;;;;;;;12.80;11.90;;;4.90;22.90;;;;;;4970607;28;20466;-63
2023/01/29 03:39:51;;;;;;;13.10;12.27;;;4.90;23.10;;;;;;4970084;28;20915;-63
2023/01/29 03:43:07;;;;;;;12.53;11.93;;;4.90;23.00;;;;;;4970549;28;20414;-63
2023/01/29 03:45:57;;;;;;;12.63;11.90;;;4.90;22.90;;;;;;4930767;29;20428;-63
2023/01/29 03:48:37;;;;;;;13.03;12.33;;;4.80;23.00;;;;;;4967736;28;20417;-63
2023/01/29 03:51:11;;;;;;;12.70;11.90;;;4.80;23.30;;;;;;4970354;28;20480;-63
2023/01/29 03:53:47;;;;;;;12.87;12.13;;;4.80;23.30;;;;;;4970674;28;20409;-63
2023/01/29 03:56:15;;;;;;;13.33;12.57;;;4.80;23.50;;;;;;4970796;28;20852;-63
2023/01/29 03:58:55;;;;;;;13.80;12.93;;;4.80;23.30;;;;;;4970374;28;20517;-62
2023/01/29 04:01:36;;;;;;;12.13;11.43;;;4.70;23.20;;;;;;4969478;28;20424;-63
2023/01/29 04:04:10;;;;;;;13.27;12.57;;;4.70;23.50;;;;;;4970076;28;20426;-63
2023/01/29 04:06:39;;;;;;;13.43;12.73;;;4.70;23.20;;;;;;4970049;28;20484;-63
2023/01/29 04:09:22;;;;;;;13.97;13.07;;;4.50;24.10;;;;;;4969238;28;20449;-63
2023/01/29 04:11:56;;;;;;;13.17;12.37;;;4.50;24.10;;;;;;4970183;28;20481;-63
2023/01/29 04:14:22;;;;;;;13.30;12.60;;;4.40;23.70;;;;;;4969256;28;20418;-63
2023/01/29 04:16:52;;;;;;;13.63;12.83;;;4.40;24.40;;;;;;4969709;28;20461;-55
2023/01/29 04:19:18;;;;;;;13.50;12.80;;;4.40;24.10;;;;;;4969744;28;20425;-50
2023/01/29 04:21:47;;;;;;;13.13;12.23;;;4.50;23.60;;;;;;4969542;28;20418;-50
2023/01/29 04:24:13;;;;;;;13.03;12.33;;;4.60;23.50;;;;;;4969739;28;20186;-51
2023/01/29 04:26:59;;;;;;;12.70;11.97;;;4.70;23.20;;;;;;4969853;28;20440;-50
2023/01/29 04:29:58;;;;;;;12.97;12.27;;;4.80;23.10;;;;;;4985380;28;20898;-51
2023/01/29 04:32:30;;;;;;;14.13;13.00;;;4.80;22.60;;;;;;4970233;28;20448;-51
2023/01/29 04:35:23;;;;;;;12.87;12.17;;;4.60;23.50;;;;;;4969459;28;21241;-53
2023/01/29 04:38:09;;;;;;;11.53;11.03;;;4.10;24.50;;;;;;4969334;28;20530;-51
2023/01/29 04:40:56;;;;;;;13.43;12.53;;;4.30;24.90;;;;;;4970260;28;20411;-51
2023/01/29 04:43:47;;;;;;;12.70;12.07;;;4.60;24.10;;;;;;4968440;28;20444;-52
2023/01/29 04:46:30;;;;;;;12.30;11.60;;;4.80;23.50;;;;;;4968710;28;20425;-63
2023/01/29 04:49:05;;;;;;;12.93;12.20;;;4.60;23.30;;;;;;4969032;28;20898;-63
2023/01/29 04:51:43;;;;;;;12.37;11.70;;;4.40;24.60;;;;;;4968216;28;20420;-63
2023/01/29 04:54:19;;;;;;;12.83;12.20;;;4.70;23.90;;;;;;4968691;28;20785;-63
2023/01/29 04:56:48;;;;;;;12.47;11.67;;;4.90;23.40;;;;;;4968802;28;21037;-62
2023/01/29 04:59:20;;;;;;;12.67;11.90;;;4.80;23.30;;;;;;4968422;28;20498;-63
2023/01/29 05:01:47;;;;;;;13.20;12.40;;;4.90;23.20;;;;;;4968659;28;20818;-62
2023/01/29 05:04:17;;;;;;;12.70;12.00;;;5.10;23.10;;;;;;4968601;28;20454;-63
2023/01/29 05:06:46;;;;;;;13.20;12.50;;;5.30;22.20;;;;;;4967605;28;20539;-63
2023/01/29 05:09:15;;;;;;;13.67;12.53;;;5.40;22.20;;;;;;4967905;28;20430;-63
2023/01/29 05:11:41;;;;;;;13.67;12.80;;;5.50;21.90;;;;;;4968377;28;20419;-62
2023/01/29 05:14:10;;;;;;;13.53;12.70;;;5.60;21.50;;;;;;4968604;28;20418;-62
2023/01/29 05:16:42;;;;;;;12.60;11.80;;;5.70;21.20;;;;;;4967948;28;20556;-62
2023/01/29 05:19:13;;;;;;;12.27;11.60;;;5.70;21.20;;;;;;4968192;28;20784;-54
2023/01/29 05:21:41;;;;;;;14.10;13.30;;;5.70;21.20;;;;;;4968374;28;20422;-55
2023/01/29 05:24:26;;;;;;;12.43;11.73;;;5.60;21.20;;;;;;4968532;28;20477;-53
2023/01/29 05:29:45;;;;;;;12.90;12.17;;;5.60;20.80;;;;;;4970906;28;20469;-54
2023/01/29 05:32:10;;;;;;;13.17;12.47;;;5.60;21.10;;;;;;4968837;28;20430;-61
2023/01/29 05:34:36;;;;;;;12.27;11.57;;;5.60;21.20;;;;;;4968820;28;20417;-63
2023/01/29 05:37:02;;;;;;;13.87;13.10;;;5.60;21.20;;;;;;4967972;28;20206;-63
2023/01/29 05:39:27;;;;;;;14.00;13.10;;;5.60;21.00;;;;;;4968847;28;20178;-63
2023/01/29 05:41:53;;;;;;;13.50;12.80;;;5.50;21.60;;;;;;4969312;28;20179;-62
2023/01/29 05:44:19;;;;;;;12.23;11.63;;;5.50;21.10;;;;;;4970208;28;20536;-63
2023/01/29 05:46:45;;;;;;;13.83;13.03;;;5.50;21.10;;;;;;4969000;28;20178;-63
2023/01/29 05:49:11;;;;;;;12.13;11.43;;;5.50;21.10;;;;;;4969088;28;20422;-55
2023/01/29 05:51:37;;;;;;;13.63;12.90;;;5.50;21.10;;;;;;4968828;28;20927;-55
2023/01/29 05:54:02;;;;;;;14.57;13.67;;;5.50;21.10;;;;;;4968688;28;20183;-54
2023/01/29 05:56:28;;;;;;;12.47;11.70;;;5.40;21.00;;;;;;4969722;28;20217;-55
2023/01/29 05:58:55;;;;;;;12.50;11.90;;;5.30;21.00;;;;;;4969132;28;20175;-54
2023/01/29 06:01:24;;;;;;;12.40;11.67;;;5.20;21.60;;;;;;4969503;28;20544;-52
2023/01/29 06:03:50;;;;;;;13.30;12.60;;;5.20;21.50;;;;;;4969570;28;20525;-53
2023/01/29 06:06:16;;;;;;;13.00;12.40;;;5.20;21.50;;;;;;4970664;28;20532;-54
2023/01/29 06:08:42;;;;;;;13.20;12.50;;;5.30;21.10;;;;;;4970011;28;20182;-54
2023/01/29 06:11:10;;;;;;;12.63;12.03;;;5.20;22.00;;;;;;4969609;28;20685;-55
2023/01/29 06:13:36;;;;;;;12.90;12.20;;;5.30;21.80;;;;;;4969463;28;20414;-52
2023/01/29 06:16:09;;;;;;;12.37;11.67;;;5.30;21.30;;;;;;4969400;28;20801;-53
2023/01/29 06:18:36;;;;;;;13.40;12.70;;;5.20;21.40;;;;;;4971591;28;20406;-53
2023/01/29 06:21:03;;;;;;;12.50;11.80;;;5.30;21.60;;;;;;4970354;28;20410;-51
2023/01/29 06:23:29;;;;;;;12.07;11.47;;;5.20;21.60;;;;;;4970521;28;20469;-53
2023/01/29 06:26:07;;;;;;;12.83;11.97;;;5.20;21.70;;;;;;4975642;28;20440;-53
2023/01/29 06:28:33;;;;;;;12.57;11.93;;;5.20;22.00;;;;;;4976386;28;20500;-51
2023/01/29 06:31:01;;;;;;;12.97;12.20;;;5.10;22.30;;;;;;4983651;28;20512;-53
2023/01/29 06:33:27;;;;;;;12.83;12.03;;;4.70;23.50;;;;;;4968665;28;20406;-62
2023/01/29 06:36:00;;;;;;;13.07;12.27;;;4.60;23.40;;;;;;4968550;28;20466;-62
2023/01/29 06:38:27;;;;;;;13.27;12.33;;;4.30;23.50;;;;;;4969418;28;20235;-62
2023/01/29 06:40:54;;;;;;;12.10;11.40;;;4.00;24.40;;;;;;4969543;28;20449;-62
2023/01/29 06:43:20;;;;;;;13.20;12.40;;;4.10;24.40;;;;;;4969787;28;20420;-61
2023/01/29 06:45:53;;;;;;;13.33;12.63;;;4.30;23.80;;;;;;4970199;28;20453;-62
2023/01/29 06:48:19;;;;;;;12.53;11.70;;;4.50;23.40;;;;;;4971187;28;20447;-62
2023/01/29 06:50:45;;;;;;;13.03;12.33;;;4.40;23.70;;;;;;4969951;28;20533;-62
2023/01/29 06:53:11;;;;;;;13.57;12.77;;;4.60;23.00;;;;;;4969985;28;20454;-62
2023/01/29 06:55:36;;;;;;;14.77;13.90;;;4.70;23.00;;;;;;4969879;28;20454;-62
2023/01/29 06:58:07;;;;;;;13.57;12.77;;;4.80;22.70;;;;;;4970375;28;20968;-63
2023/01/29 07:00:33;;;;;;;12.20;11.50;;;4.80;22.50;;;;;;4970591;28;20677;-62
2023/01/29 07:02:58;;;;;;;14.37;13.33;;;4.90;22.50;;;;;;4970376;28;20524;-62
2023/01/29 07:05:24;;;;;;;12.90;12.10;;;4.80;22.20;;;;;;4969919;28;20426;-62
2023/01/29 07:07:50;;;;;;;13.87;13.07;;;4.60;23.00;;;;;;4969906;28;20303;-62
2023/01/29 07:10:15;;;;;;;13.07;12.37;;;4.60;25.40;;;;;;4971953;28;20179;-62
2023/01/29 07:12:41;;;;;;;15.47;14.47;;;4.70;23.20;;;;;;4973989;28;20175;-62
2023/01/29 07:15:07;;;;;;;13.23;12.53;;;4.80;22.70;;;;;;4973977;28;20178;-62
2023/01/29 07:17:33;;;;;;;13.50;12.80;;;5.00;22.30;;;;;;4973928;28;20182;-63
2023/01/29 07:19:58;;;;;;;14.83;14.03;;;5.00;22.70;;;;;;4974045;28;20468;-63
2023/01/29 07:22:24;;;;;;;13.33;12.53;;;5.10;23.40;;;;;;4973875;28;20667;-63
2023/01/29 07:24:50;;;;;;;14.57;13.73;;;5.20;24.20;;;;;;4974050;28;20216;-63
2023/01/29 07:27:15;;;;;;;14.40;13.43;;;5.30;25.40;;;;;;4972888;28;20175;-62
2023/01/29 07:29:41;;;;;;;13.43;12.63;;;5.40;22.70;;;;;;4974053;28;20183;-62
2023/01/29 07:32:07;;;;;;;13.90;13.20;;;5.30;21.80;;;;;;4973370;28;20214;-61
2023/01/29 07:34:32;;;;;;;13.47;12.67;;;5.30;22.00;;;;;;4974099;28;20333;-62
2023/01/29 07:36:58;;;;;;;13.30;12.60;;;5.30;21.40;;;;;;4973013;28;21049;-62
2023/01/29 07:39:24;;;;;;;12.83;12.13;;;5.30;21.40;;;;;;4973718;28;20261;-62
2023/01/29 07:41:50;;;;;;;16.00;14.77;;;5.30;21.70;;;;;;4973223;28;20406;-63
2023/01/29 07:44:15;;;;;;;14.23;13.13;;;5.20;21.70;;;;;;4972635;28;20521;-63
2023/01/29 07:46:41;;;;;;;13.63;12.83;;;5.20;21.40;;;;;;4973359;28;20183;-62
2023/01/29 07:49:07;;;;;;;14.77;13.87;;;5.20;21.50;;;;;;4973085;28;20542;-62
2023/01/29 07:51:32;;;;;;;13.43;12.73;;;5.20;21.80;;;;;;4973126;28;20183;-63
2023/01/29 07:53:58;;;;;;;13.60;12.90;;;5.20;21.60;;;;;;4973059;28;20181;-63
2023/01/29 07:56:24;;;;;;;13.40;12.60;;;5.20;21.40;;;;;;4972482;28;20370;-62
2023/01/29 07:58:49;;;;;;;13.10;12.40;;;5.20;21.40;;;;;;4972815;28;20182;-62
2023/01/29 08:01:15;;;;;;;14.60;13.77;;;5.20;21.20;;;;;;4972993;28;20258;-61
2023/01/29 08:03:41;;;;;;;14.23;13.33;;;5.20;21.40;;;;;;4972995;28;20669;-63
2023/01/29 08:06:06;;;;;;;15.83;14.93;;;5.30;21.40;;;;;;4979085;28;20198;-62
2023/01/29 08:08:32;;;;;;;13.23;12.43;;;5.30;21.20;;;;;;4975026;28;20226;-63
2023/01/29 08:11:01;;;;;;;14.73;13.97;;;5.40;21.80;;;;;;4974013;28;20192;-63
2023/01/29 08:13:27;;;;;;;14.63;13.93;;;5.40;21.00;;;;;;4978782;28;20186;-64
2023/01/29 08:15:52;;;;;;;14.20;13.30;;;5.40;21.00;;;;;;4973456;28;20469;-64
2023/01/29 08:18:18;;;;;;;12.80;12.20;;;5.30;21.50;;;;;;4973376;28;20230;-64
2023/01/29 08:20:44;;;;;;;15.20;14.20;;;5.30;21.00;;;;;;4973924;28;20194;-64
2023/01/29 08:23:15;;;;;;;14.63;13.93;;;5.20;21.20;;;;;;4976666;28;20962;-61
2023/01/29 08:25:41;;;;;;;13.60;12.90;;;5.20;21.20;;;;;;4979632;28;20182;-60
2023/01/29 08:28:06;;;;;;;14.80;13.90;;;5.20;21.40;;;;;;4978218;28;20786;-61
2023/01/29 08:30:33;;;;;;;13.67;12.87;;;5.30;21.40;;;;;;4972009;28;20414;-60
2023/01/29 08:32:59;;;;;;;15.47;14.57;;;5.30;21.20;;;;;;4973726;28;20182;-61
2023/01/29 08:35:25;;;;;;;14.57;13.57;;;5.30;21.10;;;;;;4971537;28;20815;-61
2023/01/29 08:37:57;;;;;;;14.67;13.87;;;5.20;21.60;;;;;;4971950;28;20429;-61
2023/01/29 08:40:22;;;;;;;14.20;13.27;;;5.10;21.60;;;;;;4970729;28;20826;-61
2023/01/29 08:42:48;;;;;;;13.70;12.90;;;5.10;21.70;;;;;;4970834;28;20421;-61
2023/01/29 08:45:14;;;;;;;13.83;13.03;;;5.10;21.50;;;;;;4970949;28;20178;-61
2023/01/29 08:47:45;;;;;;;14.10;13.20;;;5.10;21.50;;;;;;4970690;28;20189;-61
2023/01/29 08:50:11;;;;;;;15.27;14.33;;;5.10;21.70;;;;;;4970472;28;20647;-61
2023/01/29 08:52:36;;;;;;;13.77;13.00;;;5.10;21.80;;;;;;4970799;28;20420;-62
2023/01/29 08:55:02;;;;;;;15.37;14.37;;;5.10;21.70;;;;;;4972238;28;20190;-61
2023/01/29 08:57:28;;;;;;;15.57;14.70;;;5.10;21.50;;;;;;4972215;28;20601;-61
2023/01/29 08:59:53;;;;;;;15.17;14.30;;;5.00;22.40;;;;;;4972265;28;20626;-61
2023/01/29 09:02:19;;;;;;;14.30;13.50;;;5.10;22.20;;;;;;4971947;28;20702;-61
2023/01/29 09:04:45;;;;;;;15.27;14.37;;;5.20;22.20;;;;;;4972132;28;20218;-60
2023/01/29 09:07:10;;;;;;;13.47;12.77;;;5.20;20.90;;;;;;4971991;28;20229;-60
2023/01/29 09:09:37;;;;;;;15.17;14.27;;;5.40;20.80;;;;;;4972068;28;20244;-61
2023/01/29 09:12:02;;;;;;;15.57;14.67;;;5.30;20.90;;;;;;4956044;28;20281;-61
2023/01/29 09:14:28;;;;;;;15.00;14.10;;;5.10;21.50;;;;;;4971783;28;20513;-61
2023/01/29 09:16:54;;;;;;;14.73;13.83;;;5.20;21.40;;;;;;4971979;28;20598;-61
2023/01/29 09:19:19;;;;;;;13.77;12.90;;;5.30;20.90;;;;;;4971813;28;20185;-61
2023/01/29 09:21:45;;;;;;;14.57;13.67;;;5.40;21.00;;;;;;4971771;28;20188;-61
2023/01/29 09:24:10;;;;;;;14.13;13.23;;;5.50;21.00;;;;;;4971846;28;20663;-61
2023/01/29 09:26:38;;;;;;;14.90;14.00;;;5.60;20.60;;;;;;4971482;28;20551;-61
2023/01/29 09:29:04;;;;;;;15.20;14.00;;;5.50;20.80;;;;;;4971809;28;20691;-60
2023/01/29 09:31:29;;;;;;;18.57;17.30;;;5.40;21.00;;;;;;4971555;28;20463;-61
2023/01/29 09:33:55;;;;;;;14.77;13.87;;;5.50;21.10;;;;;;4970999;28;20193;-61
2023/01/29 09:36:20;;;;;;;14.10;13.30;;;5.50;21.10;;;;;;4970625;28;20206;-61
2023/01/29 09:38:46;;;;;;;15.30;14.33;;;5.50;21.10;;;;;;4971810;28;20214;-60
2023/01/29 09:41:14;;;;;;;14.43;13.60;;;5.30;20.70;;;;;;4970832;28;20273;-61
2023/01/29 09:43:48;;;;;;;14.13;13.23;;;5.00;22.00;;;;;;4977442;28;20201;-61
2023/01/29 09:46:50;;;;;;;14.73;13.93;;;5.00;21.80;;;;;;4971168;28;20477;-61
2023/01/29 09:49:27;;;;;;;14.70;13.90;;;5.00;21.60;;;;;;4940787;28;20441;-61
2023/01/29 09:52:02;;;;;;;15.63;14.80;;;5.10;21.60;;;;;;4974081;28;20793;-61
2023/01/29 09:54:53;;;;;;;16.30;15.20;;;5.20;20.90;;;;;;4963496;28;20429;-61
2023/01/29 09:57:48;;;;;;;16.30;15.40;;;4.80;21.50;;;;;;4972822;28;20465;-62
2023/01/29 10:00:20;;;;;;;16.57;15.37;;;4.40;22.90;;;;;;4971633;28;20509;-62
2023/01/29 10:03:04;;;;;;;16.80;15.80;;;4.30;22.70;;;;;;4974416;28;20449;-62
2023/01/29 10:05:51;;;;;;;15.97;15.00;;;3.80;23.70;;;;;;4968645;28;20978;-62
2023/01/29 10:08:35;;;;;;;17.80;16.80;;;3.60;24.30;;;;;;4952226;28;20411;-62
2023/01/29 10:11:12;;;;;;;18.93;17.80;;;3.60;24.70;;;;;;4952474;28;20926;-62
2023/01/29 10:14:00;;;;;;;17.67;16.67;;;3.50;24.70;;;;;;4969135;28;20640;-51
2023/01/29 10:16:41;;;;;;;16.87;15.87;;;3.50;24.80;;;;;;4970854;28;20464;-53
2023/01/29 10:19:12;;;;;;;17.03;15.63;;;3.60;24.90;;;;;;4970987;28;20546;-59
2023/01/29 10:21:57;;;;;;;16.93;15.93;;;3.70;24.20;;;;;;4970902;28;20426;-55
2023/01/29 10:24:45;;;;;;;17.07;15.97;;;3.80;24.60;;;;;;4970414;28;20410;-54
2023/01/29 10:27:15;;;;;;;17.70;16.60;;;4.00;23.30;;;;;;4970826;28;20426;-54
2023/01/29 10:29:43;;;;;;;18.40;17.23;;;4.30;23.00;;;;;;4970970;28;20429;-52
2023/01/29 10:32:15;;;;;;;17.40;15.93;;;4.40;23.20;;;;;;4970701;28;20418;-54
2023/01/29 10:34:49;;;;;;;17.80;16.63;;;4.20;23.20;;;;;;4970918;28;20418;-52
2023/01/29 10:37:23;;;;;;;18.43;17.07;;;3.90;23.90;;;;;;4970780;28;20996;-51
2023/01/29 10:39:49;;;;;;;17.60;16.60;;;3.80;23.90;;;;;;4970613;28;20418;-53
2023/01/29 10:42:21;;;;;;;18.20;17.10;;;3.90;23.80;;;;;;4970731;28;20429;-50
2023/01/29 10:45:05;;;;;;;18.43;17.23;;;4.00;23.60;;;;;;4972414;28;20449;-53
2023/01/29 10:47:33;;;;;;;18.33;17.20;;;3.80;23.80;;;;;;4974484;28;20449;-50
2023/01/29 10:50:05;;;;;;;19.57;18.17;;;3.80;24.20;;;;;;4974808;28;20850;-51
2023/01/29 10:52:30;;;;;;;17.90;16.70;;;3.90;24.00;;;;;;4974266;28;20422;-53
2023/01/29 10:55:05;;;;;;;18.50;17.17;;;4.10;24.00;;;;;;4974753;28;20436;-52
2023/01/29 10:57:49;;;;;;;17.83;16.77;;;4.00;23.70;;;;;;4974325;28;20572;-53
2023/01/29 11:00:15;;;;;;;17.97;16.87;;;4.20;23.80;;;;;;4975744;28;20406;-52
2023/01/29 11:02:45;;;;;;;17.70;16.70;;;4.30;22.80;;;;;;4974032;28;20418;-50
2023/01/29 11:05:33;;;;;;;17.97;16.87;;;4.40;23.20;;;;;;4974155;28;20702;-55
2023/01/29 11:08:12;;;;;;;20.20;18.40;;;4.30;23.00;;;;;;4974106;28;20418;-54
2023/01/29 11:10:47;;;;;;;18.73;17.53;;;4.40;23.00;;;;;;4974629;28;20758;-53
2023/01/29 11:13:15;;;;;;;18.13;16.30;;;4.50;22.90;;;;;;4978630;28;20429;-51
2023/01/29 11:15:41;;;;;;;15.77;14.80;;;4.70;22.90;;;;;;4979305;28;20498;-50
2023/01/29 11:18:14;;;;;;;16.37;15.27;;;4.30;22.90;;;;;;4972751;28;20905;-49
2023/01/29 11:20:41;;;;;;;16.43;15.33;;;4.20;23.90;;;;;;4974000;28;20418;-50
2023/01/29 11:23:39;;;;;;;17.77;16.37;;;4.40;23.30;;;;;;4973719;28;20421;-52
2023/01/29 11:26:09;;;;;;;17.97;16.77;;;4.50;23.00;;;;;;4958063;28;20842;-51
2023/01/29 11:28:47;;;;;;;17.37;16.23;;;4.70;22.60;;;;;;4973648;28;20422;-61
2023/01/29 11:31:18;;;;;;;14.77;13.87;;;4.90;22.10;;;;;;4973624;28;20501;-61
2023/01/29 11:33:45;;;;;;;16.87;15.87;;;4.90;22.10;;;;;;4973784;28;20910;-61
2023/01/29 11:36:31;;;;;;;16.30;15.40;;;5.10;22.20;;;;;;4973702;28;20471;-50
2023/01/29 11:39:21;;;;;;;16.50;15.30;;;5.20;21.40;;;;;;4973652;28;20424;-51
2023/01/29 11:41:59;;;;;;;17.17;15.67;;;5.10;21.40;;;;;;4965747;28;20915;-53
2023/01/29 11:44:41;;;;;;;18.53;16.93;;;4.70;22.60;;;;;;4973491;28;20838;-50
2023/01/29 11:47:10;;;;;;;16.03;15.00;;;4.70;22.10;;;;;;4984009;28;20425;-53
2023/01/29 11:49:37;;;;;;;16.60;15.60;;;4.50;22.90;;;;;;4981853;28;20543;-52
2023/01/29 11:52:07;;;;;;;16.07;15.17;;;4.40;23.30;;;;;;4985536;28;20440;-55
2023/01/29 11:54:38;;;;;;;16.67;15.67;;;4.50;22.30;;;;;;4979520;28;20434;-56
2023/01/29 11:57:05;;;;;;;15.47;14.67;;;4.40;22.60;;;;;;4972084;28;20947;-52
2023/01/29 11:59:39;;;;;;;17.57;16.57;;;4.60;22.90;;;;;;4974939;28;20484;-54
2023/01/29 12:02:25;;;;;;;16.67;15.67;;;4.20;22.70;;;;;;4975051;28;20625;-53
2023/01/29 12:04:52;;;;;;;17.00;15.90;;;4.30;23.80;;;;;;4973034;28;20422;-53
2023/01/29 12:07:18;;;;;;;16.17;15.20;;;4.50;24.70;;;;;;4972818;28;20466;-52
2023/01/29 12:09:56;;;;;;;16.37;15.37;;;4.90;23.30;;;;;;4973509;28;20882;-52
2023/01/29 12:12:47;;;;;;;15.83;14.93;;;5.10;22.30;;;;;;4980072;28;20989;-51
2023/01/29 12:15:25;;;;;;;14.20;13.40;;;5.10;22.30;;;;;;4973922;28;20434;-54
2023/01/29 12:18:02;;;;;;;16.87;15.60;;;4.90;22.30;;;;;;4973482;28;20426;-52
2023/01/29 12:20:39;;;;;;;15.73;14.80;;;4.70;22.80;;;;;;4973831;28;20425;-53
2023/01/29 12:23:45;;;;;;;15.73;14.53;;;4.60;22.70;;;;;;4982920;28;20413;-54
2023/01/29 12:26:30;;;;;;;15.03;14.13;;;4.80;22.30;;;;;;4973318;28;20414;-52
2023/01/29 12:29:40;;;;;;;15.63;14.70;;;4.70;22.20;;;;;;4971352;28;20422;-53
2023/01/29 12:32:32;;;;;;;15.37;14.40;;;4.40;22.80;;;;;;4968814;28;20422;-54
2023/01/29 12:35:08;;;;;;;16.00;14.90;;;4.10;23.50;;;;;;4964657;28;20474;-52
2023/01/29 12:38:11;;;;;;;15.47;14.47;;;4.00;24.20;;;;;;4972317;28;20473;-61
2023/01/29 12:40:50;;;;;;;16.87;15.80;;;4.10;24.00;;;;;;4963704;28;20414;-62
2023/01/29 12:43:18;;;;;;;16.57;15.47;;;3.90;24.00;;;;;;4968714;28;20461;-62
2023/01/29 12:45:50;;;;;;;18.10;17.00;;;3.80;24.50;;;;;;4973476;28;20433;-62
2023/01/29 12:48:26;;;;;;;17.77;16.67;;;3.70;24.60;;;;;;4971587;28;20429;-62
2023/01/29 12:50:53;;;;;;;17.90;16.73;;;3.80;24.70;;;;;;4972086;28;20449;-62
2023/01/29 12:53:43;;;;;;;18.30;16.90;;;4.00;24.20;;;;;;4971799;28;20434;-62
2023/01/29 12:56:14;;;;;;;16.40;15.30;;;4.30;24.30;;;;;;4971813;28;20565;-63
2023/01/29 12:58:49;;;;;;;17.30;15.60;;;4.40;24.10;;;;;;4972139;28;20509;-62
2023/01/29 13:01:50;;;;;;;17.37;16.17;;;4.50;23.20;;;;;;4972025;28;20522;-62
2023/01/29 13:04:35;;;;;;;17.07;15.90;;;4.20;23.60;;;;;;4987713;28;20453;-62
2023/01/29 13:07:12;;;;;;;17.30;16.10;;;4.40;23.30;;;;;;4973102;28;20433;-63
2023/01/29 13:09:44;;;;;;;15.93;14.93;;;4.40;23.60;;;;;;4971467;28;20425;-61
2023/01/29 13:12:16;;;;;;;16.03;14.93;;;4.30;23.60;;;;;;4971651;28;20425;-61
2023/01/29 13:14:53;;;;;;;16.27;15.17;;;4.20;23.60;;;;;;4971724;28;20849;-61
2023/01/29 13:17:31;;;;;;;17.07;15.60;;;4.40;23.50;;;;;;4971537;28;20993;-61
2023/01/29 13:20:02;;;;;;;15.87;14.87;;;4.40;23.30;;;;;;4971485;28;20449;-61
2023/01/29 13:22:33;;;;;;;17.20;16.00;;;4.30;23.70;;;;;;4971401;28;20529;-61
2023/01/29 13:24:59;;;;;;;17.80;16.20;;;4.40;23.70;;;;;;4971483;28;20422;-60
2023/01/29 13:27:28;;;;;;;17.23;16.20;;;4.50;23.80;;;;;;4971448;28;20762;-61
2023/01/29 13:29:55;;;;;;;17.13;15.80;;;4.30;24.00;;;;;;4972792;28;20528;-61